sensor_id;sensor_type;location;lat;lon;timestamp;P1;durP1;ratioP1;P2;durP2;ratioP2
55617;SDS011;41492;49.804;9.952;2024-02-28T00:00:36;4.35;;;3.95;;
55617;SDS011;41492;49.804;9.952;2024-02-28T00:03:02;5.45;;;4.07;;
55617;SDS011;41492;49.804;9.952;2024-02-28T00:05:31;4.88;;;4.43;;
55617;SDS011;41492;49.804;9.952;2024-02-28T00:07:59;4.72;;;4.28;;
55617;SDS011;41492;49.804;9.952;2024-02-28T00:10:25;4.85;;;4.35;;
55617;SDS011;41492;49.804;9.952;2024-02-28T00:12:52;4.45;;;4.05;;
55617;SDS011;41492;49.804;9.952;2024-02-28T00:15:18;5.47;;;4.47;;
55617;SDS011;41492;49.804;9.952;2024-02-28T00:17:45;4.93;;;4.13;;
55617;SDS011;41492;49.804;9.952;2024-02-28T00:20:12;4.13;;;3.70;;
55617;SDS011;41492;49.804;9.952;2024-02-28T00:22:38;4.30;;;3.90;;
55617;SDS011;41492;49.804;9.952;2024-02-28T00:25:07;4.75;;;4.20;;
55617;SDS011;41492;49.804;9.952;2024-02-28T00:27:36;5.28;;;4.40;;
55617;SDS011;41492;49.804;9.952;2024-02-28T00:30:03;4.78;;;4.28;;
55617;SDS011;41492;49.804;9.952;2024-02-28T00:32:31;4.38;;;3.70;;
55617;SDS011;41492;49.804;9.952;2024-02-28T00:34:58;4.00;;;3.60;;
55617;SDS011;41492;49.804;9.952;2024-02-28T00:37:24;4.65;;;4.10;;
55617;SDS011;41492;49.804;9.952;2024-02-28T00:39:51;5.00;;;4.47;;
55617;SDS011;41492;49.804;9.952;2024-02-28T00:42:19;4.88;;;3.95;;
55617;SDS011;41492;49.804;9.952;2024-02-28T00:44:45;4.88;;;4.38;;
55617;SDS011;41492;49.804;9.952;2024-02-28T00:47:12;4.75;;;4.10;;
55617;SDS011;41492;49.804;9.952;2024-02-28T00:49:39;4.95;;;4.45;;
55617;SDS011;41492;49.804;9.952;2024-02-28T00:52:06;4.55;;;4.15;;
55617;SDS011;41492;49.804;9.952;2024-02-28T00:54:33;4.47;;;4.05;;
55617;SDS011;41492;49.804;9.952;2024-02-28T00:56:59;5.32;;;4.00;;
55617;SDS011;41492;49.804;9.952;2024-02-28T00:59:27;4.05;;;3.75;;
55617;SDS011;41492;49.804;9.952;2024-02-28T01:01:54;4.45;;;4.05;;
55617;SDS011;41492;49.804;9.952;2024-02-28T01:04:20;4.90;;;4.40;;
55617;SDS011;41492;49.804;9.952;2024-02-28T01:06:47;4.60;;;4.20;;
55617;SDS011;41492;49.804;9.952;2024-02-28T01:09:14;4.60;;;4.20;;
55617;SDS011;41492;49.804;9.952;2024-02-28T01:11:40;4.47;;;4.07;;
55617;SDS011;41492;49.804;9.952;2024-02-28T01:14:07;4.70;;;4.30;;
55617;SDS011;41492;49.804;9.952;2024-02-28T01:16:35;4.70;;;4.22;;
55617;SDS011;41492;49.804;9.952;2024-02-28T01:19:01;4.35;;;3.95;;
55617;SDS011;41492;49.804;9.952;2024-02-28T01:21:28;4.57;;;4.18;;
55617;SDS011;41492;49.804;9.952;2024-02-28T01:23:54;4.72;;;4.05;;
55617;SDS011;41492;49.804;9.952;2024-02-28T01:26:21;4.97;;;4.47;;
55617;SDS011;41492;49.804;9.952;2024-02-28T01:28:48;4.40;;;4.00;;
55617;SDS011;41492;49.804;9.952;2024-02-28T01:31:14;4.78;;;4.30;;
55617;SDS011;41492;49.804;9.952;2024-02-28T01:33:42;3.58;;;3.28;;
55617;SDS011;41492;49.804;9.952;2024-02-28T01:36:10;5.10;;;4.30;;
55617;SDS011;41492;49.804;9.952;2024-02-28T01:38:38;4.07;;;3.58;;
55617;SDS011;41492;49.804;9.952;2024-02-28T01:41:05;4.40;;;4.00;;
55617;SDS011;41492;49.804;9.952;2024-02-28T01:43:31;4.38;;;3.72;;
55617;SDS011;41492;49.804;9.952;2024-02-28T01:45:59;5.35;;;4.57;;
55617;SDS011;41492;49.804;9.952;2024-02-28T01:48:27;4.03;;;3.63;;
55617;SDS011;41492;49.804;9.952;2024-02-28T01:50:56;3.90;;;3.50;;
55617;SDS011;41492;49.804;9.952;2024-02-28T01:53:23;4.05;;;3.70;;
55617;SDS011;41492;49.804;9.952;2024-02-28T01:55:49;4.60;;;4.20;;
55617;SDS011;41492;49.804;9.952;2024-02-28T01:58:17;4.38;;;3.75;;
55617;SDS011;41492;49.804;9.952;2024-02-28T02:00:43;4.38;;;3.97;;
55617;SDS011;41492;49.804;9.952;2024-02-28T02:03:11;4.53;;;3.97;;
55617;SDS011;41492;49.804;9.952;2024-02-28T02:05:37;4.57;;;4.18;;
55617;SDS011;41492;49.804;9.952;2024-02-28T02:08:05;4.30;;;3.85;;
55617;SDS011;41492;49.804;9.952;2024-02-28T02:10:32;3.88;;;3.58;;
55617;SDS011;41492;49.804;9.952;2024-02-28T02:13:03;4.10;;;3.70;;
55617;SDS011;41492;49.804;9.952;2024-02-28T02:15:30;5.20;;;4.35;;
55617;SDS011;41492;49.804;9.952;2024-02-28T02:17:57;5.63;;;4.80;;
55617;SDS011;41492;49.804;9.952;2024-02-28T02:20:24;4.82;;;4.22;;
55617;SDS011;41492;49.804;9.952;2024-02-28T02:22:53;5.60;;;3.80;;
55617;SDS011;41492;49.804;9.952;2024-02-28T02:25:20;4.03;;;3.67;;
55617;SDS011;41492;49.804;9.952;2024-02-28T02:27:46;4.60;;;4.03;;
55617;SDS011;41492;49.804;9.952;2024-02-28T02:30:13;4.05;;;3.65;;
55617;SDS011;41492;49.804;9.952;2024-02-28T02:32:39;4.65;;;4.15;;
55617;SDS011;41492;49.804;9.952;2024-02-28T02:35:06;3.90;;;3.50;;
55617;SDS011;41492;49.804;9.952;2024-02-28T02:37:33;4.78;;;4.15;;
55617;SDS011;41492;49.804;9.952;2024-02-28T02:40:01;4.35;;;3.90;;
55617;SDS011;41492;49.804;9.952;2024-02-28T02:42:28;4.22;;;3.83;;
55617;SDS011;41492;49.804;9.952;2024-02-28T02:44:54;4.55;;;4.15;;
55617;SDS011;41492;49.804;9.952;2024-02-28T02:47:21;4.15;;;3.65;;
55617;SDS011;41492;49.804;9.952;2024-02-28T02:49:48;4.22;;;3.85;;
55617;SDS011;41492;49.804;9.952;2024-02-28T02:52:14;4.20;;;3.75;;
55617;SDS011;41492;49.804;9.952;2024-02-28T02:54:41;4.53;;;3.95;;
55617;SDS011;41492;49.804;9.952;2024-02-28T02:57:09;4.88;;;4.18;;
55617;SDS011;41492;49.804;9.952;2024-02-28T02:59:35;4.78;;;4.28;;
55617;SDS011;41492;49.804;9.952;2024-02-28T03:02:02;4.45;;;4.05;;
55617;SDS011;41492;49.804;9.952;2024-02-28T03:04:29;3.72;;;3.42;;
55617;SDS011;41492;49.804;9.952;2024-02-28T03:06:55;4.32;;;3.90;;
55617;SDS011;41492;49.804;9.952;2024-02-28T03:09:22;4.78;;;3.72;;
55617;SDS011;41492;49.804;9.952;2024-02-28T03:11:49;4.35;;;3.60;;
55617;SDS011;41492;49.804;9.952;2024-02-28T03:14:17;3.85;;;3.53;;
55617;SDS011;41492;49.804;9.952;2024-02-28T03:16:47;4.15;;;3.75;;
55617;SDS011;41492;49.804;9.952;2024-02-28T03:19:14;4.35;;;3.95;;
55617;SDS011;41492;49.804;9.952;2024-02-28T03:21:40;4.53;;;3.65;;
55617;SDS011;41492;49.804;9.952;2024-02-28T03:24:07;4.47;;;4.03;;
55617;SDS011;41492;49.804;9.952;2024-02-28T03:26:34;5.20;;;3.42;;
55617;SDS011;41492;49.804;9.952;2024-02-28T03:29:01;4.50;;;3.78;;
55617;SDS011;41492;49.804;9.952;2024-02-28T03:31:29;5.30;;;4.18;;
55617;SDS011;41492;49.804;9.952;2024-02-28T03:33:55;4.10;;;3.63;;
55617;SDS011;41492;49.804;9.952;2024-02-28T03:36:23;4.30;;;3.90;;
55617;SDS011;41492;49.804;9.952;2024-02-28T03:38:49;5.28;;;3.78;;
55617;SDS011;41492;49.804;9.952;2024-02-28T03:41:16;3.78;;;3.47;;
55617;SDS011;41492;49.804;9.952;2024-02-28T03:43:43;5.68;;;3.65;;
55617;SDS011;41492;49.804;9.952;2024-02-28T03:46:09;4.32;;;3.92;;
55617;SDS011;41492;49.804;9.952;2024-02-28T03:48:37;4.30;;;3.90;;
55617;SDS011;41492;49.804;9.952;2024-02-28T03:51:04;3.72;;;3.42;;
55617;SDS011;41492;49.804;9.952;2024-02-28T03:53:30;7.15;;;3.78;;
55617;SDS011;41492;49.804;9.952;2024-02-28T03:55:57;3.88;;;3.45;;
55617;SDS011;41492;49.804;9.952;2024-02-28T03:58:23;4.05;;;3.60;;
55617;SDS011;41492;49.804;9.952;2024-02-28T04:00:50;4.95;;;4.13;;
55617;SDS011;41492;49.804;9.952;2024-02-28T04:03:17;3.92;;;3.60;;
55617;SDS011;41492;49.804;9.952;2024-02-28T04:05:45;4.40;;;4.00;;
55617;SDS011;41492;49.804;9.952;2024-02-28T04:08:11;4.07;;;3.35;;
55617;SDS011;41492;49.804;9.952;2024-02-28T04:10:38;4.35;;;3.90;;
55617;SDS011;41492;49.804;9.952;2024-02-28T04:13:04;4.70;;;4.18;;
55617;SDS011;41492;49.804;9.952;2024-02-28T04:15:31;5.30;;;3.83;;
55617;SDS011;41492;49.804;9.952;2024-02-28T04:17:58;3.72;;;3.42;;
55617;SDS011;41492;49.804;9.952;2024-02-28T04:20:25;3.60;;;3.30;;
55617;SDS011;41492;49.804;9.952;2024-02-28T04:22:53;4.47;;;3.95;;
55617;SDS011;41492;49.804;9.952;2024-02-28T04:25:19;4.00;;;3.30;;
55617;SDS011;41492;49.804;9.952;2024-02-28T04:27:46;4.75;;;3.95;;
55617;SDS011;41492;49.804;9.952;2024-02-28T04:30:12;4.13;;;3.45;;
55617;SDS011;41492;49.804;9.952;2024-02-28T04:32:39;3.72;;;3.33;;
55617;SDS011;41492;49.804;9.952;2024-02-28T04:35:06;3.95;;;3.58;;
55617;SDS011;41492;49.804;9.952;2024-02-28T04:37:33;4.28;;;3.70;;
55617;SDS011;41492;49.804;9.952;2024-02-28T04:40:02;4.22;;;3.83;;
55617;SDS011;41492;49.804;9.952;2024-02-28T04:42:30;4.05;;;3.65;;
55617;SDS011;41492;49.804;9.952;2024-02-28T04:44:56;4.03;;;3.63;;
55617;SDS011;41492;49.804;9.952;2024-02-28T04:47:23;3.70;;;3.40;;
55617;SDS011;41492;49.804;9.952;2024-02-28T04:49:49;4.15;;;3.75;;
55617;SDS011;41492;49.804;9.952;2024-02-28T04:52:16;3.92;;;3.50;;
55617;SDS011;41492;49.804;9.952;2024-02-28T04:54:42;3.80;;;3.40;;
55617;SDS011;41492;49.804;9.952;2024-02-28T04:57:11;4.15;;;3.63;;
55617;SDS011;41492;49.804;9.952;2024-02-28T04:59:38;3.92;;;3.63;;
55617;SDS011;41492;49.804;9.952;2024-02-28T05:02:04;4.15;;;3.67;;
55617;SDS011;41492;49.804;9.952;2024-02-28T05:04:31;3.97;;;3.58;;
55617;SDS011;41492;49.804;9.952;2024-02-28T05:06:58;3.83;;;3.42;;
55617;SDS011;41492;49.804;9.952;2024-02-28T05:09:24;3.58;;;3.28;;
55617;SDS011;41492;49.804;9.952;2024-02-28T05:11:51;4.07;;;3.67;;
55617;SDS011;41492;49.804;9.952;2024-02-28T05:14:19;3.75;;;3.40;;
55617;SDS011;41492;49.804;9.952;2024-02-28T05:16:46;4.32;;;3.50;;
55617;SDS011;41492;49.804;9.952;2024-02-28T05:19:13;3.67;;;2.95;;
55617;SDS011;41492;49.804;9.952;2024-02-28T05:21:43;4.22;;;3.83;;
55617;SDS011;41492;49.804;9.952;2024-02-28T05:24:09;3.75;;;3.33;;
55617;SDS011;41492;49.804;9.952;2024-02-28T05:26:36;4.22;;;3.10;;
55617;SDS011;41492;49.804;9.952;2024-02-28T05:29:03;3.83;;;3.42;;
55617;SDS011;41492;49.804;9.952;2024-02-28T05:31:31;3.33;;;3.03;;
55617;SDS011;41492;49.804;9.952;2024-02-28T05:33:59;3.55;;;3.25;;
55617;SDS011;41492;49.804;9.952;2024-02-28T05:36:26;4.25;;;3.72;;
55617;SDS011;41492;49.804;9.952;2024-02-28T05:38:54;3.72;;;3.28;;
55617;SDS011;41492;49.804;9.952;2024-02-28T05:41:21;3.83;;;3.42;;
55617;SDS011;41492;49.804;9.952;2024-02-28T05:43:48;3.78;;;3.25;;
55617;SDS011;41492;49.804;9.952;2024-02-28T05:46:15;2.97;;;2.78;;
55617;SDS011;41492;49.804;9.952;2024-02-28T05:48:44;3.55;;;2.92;;
55617;SDS011;41492;49.804;9.952;2024-02-28T05:51:11;4.82;;;3.72;;
55617;SDS011;41492;49.804;9.952;2024-02-28T05:53:38;3.53;;;3.22;;
55617;SDS011;41492;49.804;9.952;2024-02-28T05:56:05;3.92;;;3.45;;
55617;SDS011;41492;49.804;9.952;2024-02-28T05:58:38;5.05;;;3.42;;
55617;SDS011;41492;49.804;9.952;2024-02-28T06:01:04;3.60;;;3.30;;
55617;SDS011;41492;49.804;9.952;2024-02-28T06:03:32;4.55;;;3.63;;
55617;SDS011;41492;49.804;9.952;2024-02-28T06:06:00;3.33;;;3.03;;
55617;SDS011;41492;49.804;9.952;2024-02-28T06:08:29;3.53;;;3.22;;
55617;SDS011;41492;49.804;9.952;2024-02-28T06:10:56;4.63;;;3.88;;
55617;SDS011;41492;49.804;9.952;2024-02-28T06:13:23;3.80;;;3.25;;
55617;SDS011;41492;49.804;9.952;2024-02-28T06:15:49;3.80;;;3.45;;
55617;SDS011;41492;49.804;9.952;2024-02-28T06:18:16;3.63;;;3.03;;
55617;SDS011;41492;49.804;9.952;2024-02-28T06:20:43;3.45;;;3.15;;
55617;SDS011;41492;49.804;9.952;2024-02-28T06:23:11;5.18;;;3.20;;
55617;SDS011;41492;49.804;9.952;2024-02-28T06:25:37;3.35;;;2.92;;
55617;SDS011;41492;49.804;9.952;2024-02-28T06:28:04;3.97;;;3.30;;
55617;SDS011;41492;49.804;9.952;2024-02-28T06:30:31;3.45;;;3.15;;
55617;SDS011;41492;49.804;9.952;2024-02-28T06:32:59;3.90;;;3.55;;
55617;SDS011;41492;49.804;9.952;2024-02-28T06:35:25;3.75;;;3.35;;
55617;SDS011;41492;49.804;9.952;2024-02-28T06:37:52;3.63;;;3.20;;
55617;SDS011;41492;49.804;9.952;2024-02-28T06:40:21;3.50;;;3.20;;
55617;SDS011;41492;49.804;9.952;2024-02-28T06:42:47;3.45;;;3.05;;
55617;SDS011;41492;49.804;9.952;2024-02-28T06:45:14;3.55;;;2.90;;
55617;SDS011;41492;49.804;9.952;2024-02-28T06:47:40;3.80;;;2.95;;
55617;SDS011;41492;49.804;9.952;2024-02-28T06:50:08;3.75;;;3.33;;
55617;SDS011;41492;49.804;9.952;2024-02-28T06:52:35;7.72;;;3.17;;
55617;SDS011;41492;49.804;9.952;2024-02-28T06:55:02;3.47;;;3.03;;
55617;SDS011;41492;49.804;9.952;2024-02-28T06:57:36;3.78;;;3.20;;
55617;SDS011;41492;49.804;9.952;2024-02-28T07:00:04;4.50;;;3.05;;
55617;SDS011;41492;49.804;9.952;2024-02-28T07:02:33;3.40;;;3.10;;
55617;SDS011;41492;49.804;9.952;2024-02-28T07:04:59;4.85;;;2.97;;
55617;SDS011;41492;49.804;9.952;2024-02-28T07:07:27;5.38;;;3.28;;
55617;SDS011;41492;49.804;9.952;2024-02-28T07:09:54;3.22;;;2.92;;
55617;SDS011;41492;49.804;9.952;2024-02-28T07:12:20;3.70;;;3.17;;
55617;SDS011;41492;49.804;9.952;2024-02-28T07:14:48;3.42;;;3.10;;
55617;SDS011;41492;49.804;9.952;2024-02-28T07:17:15;3.83;;;3.42;;
55617;SDS011;41492;49.804;9.952;2024-02-28T07:19:41;4.43;;;3.10;;
55617;SDS011;41492;49.804;9.952;2024-02-28T07:22:08;5.32;;;3.70;;
55617;SDS011;41492;49.804;9.952;2024-02-28T07:24:35;5.05;;;3.60;;
55617;SDS011;41492;49.804;9.952;2024-02-28T07:27:02;4.35;;;3.22;;
55617;SDS011;41492;49.804;9.952;2024-02-28T07:29:28;3.50;;;2.90;;
55617;SDS011;41492;49.804;9.952;2024-02-28T07:31:56;3.67;;;3.30;;
55617;SDS011;41492;49.804;9.952;2024-02-28T07:34:23;4.30;;;3.20;;
55617;SDS011;41492;49.804;9.952;2024-02-28T07:36:49;4.78;;;3.10;;
55617;SDS011;41492;49.804;9.952;2024-02-28T07:39:16;4.30;;;3.40;;
55617;SDS011;41492;49.804;9.952;2024-02-28T07:41:43;3.45;;;3.15;;
55617;SDS011;41492;49.804;9.952;2024-02-28T07:44:10;3.90;;;3.08;;
55617;SDS011;41492;49.804;9.952;2024-02-28T07:46:37;3.42;;;3.13;;
55617;SDS011;41492;49.804;9.952;2024-02-28T07:49:05;6.25;;;3.97;;
55617;SDS011;41492;49.804;9.952;2024-02-28T07:51:31;3.33;;;2.92;;
55617;SDS011;41492;49.804;9.952;2024-02-28T07:53:58;4.07;;;3.35;;
55617;SDS011;41492;49.804;9.952;2024-02-28T07:56:25;6.25;;;3.08;;
55617;SDS011;41492;49.804;9.952;2024-02-28T07:58:51;3.42;;;3.10;;
55617;SDS011;41492;49.804;9.952;2024-02-28T08:01:18;3.85;;;3.10;;
55617;SDS011;41492;49.804;9.952;2024-02-28T08:03:44;5.82;;;3.58;;
55617;SDS011;41492;49.804;9.952;2024-02-28T08:06:12;3.80;;;3.25;;
55617;SDS011;41492;49.804;9.952;2024-02-28T08:08:39;3.17;;;2.88;;
55617;SDS011;41492;49.804;9.952;2024-02-28T08:11:05;3.95;;;3.33;;
55617;SDS011;41492;49.804;9.952;2024-02-28T08:13:32;4.18;;;3.05;;
55617;SDS011;41492;49.804;9.952;2024-02-28T08:15:58;3.50;;;3.20;;
55617;SDS011;41492;49.804;9.952;2024-02-28T08:18:25;3.28;;;2.92;;
55617;SDS011;41492;49.804;9.952;2024-02-28T08:20:53;3.83;;;3.42;;
55617;SDS011;41492;49.804;9.952;2024-02-28T08:23:23;3.38;;;2.85;;
55617;SDS011;41492;49.804;9.952;2024-02-28T08:25:51;3.95;;;3.13;;
55617;SDS011;41492;49.804;9.952;2024-02-28T08:28:18;3.85;;;3.13;;
55617;SDS011;41492;49.804;9.952;2024-02-28T08:30:44;3.85;;;3.10;;
55617;SDS011;41492;49.804;9.952;2024-02-28T08:33:11;3.25;;;2.95;;
55617;SDS011;41492;49.804;9.952;2024-02-28T08:35:37;4.00;;;2.97;;
55617;SDS011;41492;49.804;9.952;2024-02-28T08:38:04;2.85;;;2.55;;
55617;SDS011;41492;49.804;9.952;2024-02-28T08:40:32;3.83;;;3.25;;
55617;SDS011;41492;49.804;9.952;2024-02-28T08:42:58;4.00;;;3.30;;
55617;SDS011;41492;49.804;9.952;2024-02-28T08:45:25;2.67;;;2.47;;
55617;SDS011;41492;49.804;9.952;2024-02-28T08:47:52;3.03;;;2.72;;
55617;SDS011;41492;49.804;9.952;2024-02-28T08:50:19;3.35;;;3.05;;
55617;SDS011;41492;49.804;9.952;2024-02-28T08:52:45;3.08;;;2.78;;
55617;SDS011;41492;49.804;9.952;2024-02-28T08:55:12;3.00;;;2.80;;
55617;SDS011;41492;49.804;9.952;2024-02-28T08:57:40;3.47;;;3.05;;
55617;SDS011;41492;49.804;9.952;2024-02-28T09:00:07;3.85;;;3.53;;
55617;SDS011;41492;49.804;9.952;2024-02-28T09:02:34;5.07;;;2.95;;
55617;SDS011;41492;49.804;9.952;2024-02-28T09:05:02;3.83;;;3.03;;
55617;SDS011;41492;49.804;9.952;2024-02-28T09:07:28;3.55;;;2.90;;
55617;SDS011;41492;49.804;9.952;2024-02-28T09:09:55;3.20;;;2.90;;
55617;SDS011;41492;49.804;9.952;2024-02-28T09:12:22;3.00;;;2.80;;
55617;SDS011;41492;49.804;9.952;2024-02-28T09:14:50;3.00;;;2.70;;
55617;SDS011;41492;49.804;9.952;2024-02-28T09:17:21;4.13;;;3.22;;
55617;SDS011;41492;49.804;9.952;2024-02-28T09:19:48;3.17;;;2.88;;
55617;SDS011;41492;49.804;9.952;2024-02-28T09:22:15;5.00;;;3.40;;
55617;SDS011;41492;49.804;9.952;2024-02-28T09:24:42;3.10;;;2.80;;
55617;SDS011;41492;49.804;9.952;2024-02-28T09:27:09;3.00;;;2.65;;
55617;SDS011;41492;49.804;9.952;2024-02-28T09:29:35;2.88;;;2.58;;
55617;SDS011;41492;49.804;9.952;2024-02-28T09:32:03;2.88;;;2.60;;
55617;SDS011;41492;49.804;9.952;2024-02-28T09:34:30;3.22;;;2.50;;
55617;SDS011;41492;49.804;9.952;2024-02-28T09:36:57;3.47;;;2.70;;
55617;SDS011;41492;49.804;9.952;2024-02-28T09:39:23;3.42;;;3.13;;
55617;SDS011;41492;49.804;9.952;2024-02-28T09:41:50;3.10;;;2.80;;
55617;SDS011;41492;49.804;9.952;2024-02-28T09:44:17;3.00;;;2.75;;
55617;SDS011;41492;49.804;9.952;2024-02-28T09:46:44;4.57;;;2.92;;
55617;SDS011;41492;49.804;9.952;2024-02-28T09:49:15;2.38;;;2.17;;
55617;SDS011;41492;49.804;9.952;2024-02-28T09:51:42;3.10;;;2.50;;
55617;SDS011;41492;49.804;9.952;2024-02-28T09:54:09;5.80;;;2.95;;
55617;SDS011;41492;49.804;9.952;2024-02-28T09:56:36;3.00;;;2.38;;
55617;SDS011;41492;49.804;9.952;2024-02-28T09:59:02;3.30;;;2.50;;
55617;SDS011;41492;49.804;9.952;2024-02-28T10:01:29;3.15;;;2.85;;
55617;SDS011;41492;49.804;9.952;2024-02-28T10:03:56;2.92;;;2.63;;
55617;SDS011;41492;49.804;9.952;2024-02-28T10:06:25;2.65;;;2.42;;
55617;SDS011;41492;49.804;9.952;2024-02-28T10:08:51;3.90;;;2.90;;
55617;SDS011;41492;49.804;9.952;2024-02-28T10:11:18;3.38;;;2.90;;
55617;SDS011;41492;49.804;9.952;2024-02-28T10:13:45;3.10;;;2.75;;
55617;SDS011;41492;49.804;9.952;2024-02-28T10:16:12;4.00;;;2.63;;
55617;SDS011;41492;49.804;9.952;2024-02-28T10:18:40;2.72;;;2.53;;
55617;SDS011;41492;49.804;9.952;2024-02-28T10:21:07;3.53;;;3.13;;
55617;SDS011;41492;49.804;9.952;2024-02-28T10:23:35;3.15;;;2.78;;
55617;SDS011;41492;49.804;9.952;2024-02-28T10:26:04;2.83;;;2.50;;
55617;SDS011;41492;49.804;9.952;2024-02-28T10:28:31;2.47;;;2.28;;
55617;SDS011;41492;49.804;9.952;2024-02-28T10:30:58;3.08;;;2.78;;
55617;SDS011;41492;49.804;9.952;2024-02-28T10:33:26;3.55;;;2.85;;
55617;SDS011;41492;49.804;9.952;2024-02-28T10:35:54;2.72;;;2.45;;
55617;SDS011;41492;49.804;9.952;2024-02-28T10:38:21;3.10;;;2.80;;
55617;SDS011;41492;49.804;9.952;2024-02-28T10:40:49;2.70;;;2.50;;
55617;SDS011;41492;49.804;9.952;2024-02-28T10:43:17;3.28;;;2.72;;
55617;SDS011;41492;49.804;9.952;2024-02-28T10:45:43;8.20;;;2.70;;
55617;SDS011;41492;49.804;9.952;2024-02-28T10:48:11;2.78;;;2.55;;
55617;SDS011;41492;49.804;9.952;2024-02-28T10:50:40;4.78;;;2.60;;
55617;SDS011;41492;49.804;9.952;2024-02-28T10:53:09;2.55;;;2.35;;
55617;SDS011;41492;49.804;9.952;2024-02-28T10:55:40;2.88;;;2.67;;
55617;SDS011;41492;49.804;9.952;2024-02-28T10:58:10;3.20;;;2.58;;
55617;SDS011;41492;49.804;9.952;2024-02-28T11:00:37;2.75;;;2.55;;
55617;SDS011;41492;49.804;9.952;2024-02-28T11:03:06;2.97;;;2.40;;
55617;SDS011;41492;49.804;9.952;2024-02-28T11:05:36;2.58;;;2.38;;
55617;SDS011;41492;49.804;9.952;2024-02-28T11:08:04;2.75;;;2.55;;
55617;SDS011;41492;49.804;9.952;2024-02-28T11:10:32;2.45;;;2.25;;
55617;SDS011;41492;49.804;9.952;2024-02-28T11:12:59;2.47;;;2.28;;
55617;SDS011;41492;49.804;9.952;2024-02-28T11:15:27;3.05;;;2.75;;
55617;SDS011;41492;49.804;9.952;2024-02-28T11:17:53;2.67;;;2.35;;
55617;SDS011;41492;49.804;9.952;2024-02-28T11:20:20;2.70;;;2.50;;
55617;SDS011;41492;49.804;9.952;2024-02-28T11:22:47;2.60;;;2.40;;
55617;SDS011;41492;49.804;9.952;2024-02-28T11:25:14;2.75;;;2.55;;
55617;SDS011;41492;49.804;9.952;2024-02-28T11:27:47;2.85;;;2.53;;
55617;SDS011;41492;49.804;9.952;2024-02-28T11:30:14;3.45;;;2.67;;
55617;SDS011;41492;49.804;9.952;2024-02-28T11:32:42;2.60;;;2.28;;
55617;SDS011;41492;49.804;9.952;2024-02-28T11:35:09;3.22;;;2.80;;
55617;SDS011;41492;49.804;9.952;2024-02-28T11:37:37;2.20;;;2.00;;
55617;SDS011;41492;49.804;9.952;2024-02-28T11:40:05;2.83;;;2.33;;
55617;SDS011;41492;49.804;9.952;2024-02-28T11:42:34;2.40;;;2.20;;
55617;SDS011;41492;49.804;9.952;2024-02-28T11:45:01;2.60;;;2.40;;
55617;SDS011;41492;49.804;9.952;2024-02-28T11:47:31;2.47;;;2.28;;
55617;SDS011;41492;49.804;9.952;2024-02-28T11:49:59;2.33;;;2.13;;
55617;SDS011;41492;49.804;9.952;2024-02-28T11:52:27;3.80;;;2.20;;
55617;SDS011;41492;49.804;9.952;2024-02-28T11:54:53;2.38;;;2.17;;
55617;SDS011;41492;49.804;9.952;2024-02-28T11:57:20;2.47;;;2.28;;
55617;SDS011;41492;49.804;9.952;2024-02-28T11:59:47;3.05;;;2.75;;
55617;SDS011;41492;49.804;9.952;2024-02-28T12:02:14;2.58;;;2.38;;
55617;SDS011;41492;49.804;9.952;2024-02-28T12:04:41;2.15;;;2.05;;
55617;SDS011;41492;49.804;9.952;2024-02-28T12:07:10;2.28;;;2.05;;
55617;SDS011;41492;49.804;9.952;2024-02-28T12:09:37;3.15;;;2.50;;
55617;SDS011;41492;49.804;9.952;2024-02-28T12:12:04;3.00;;;2.50;;
55617;SDS011;41492;49.804;9.952;2024-02-28T12:14:36;2.17;;;1.98;;
55617;SDS011;41492;49.804;9.952;2024-02-28T12:17:03;2.47;;;2.28;;
55617;SDS011;41492;49.804;9.952;2024-02-28T12:19:30;2.30;;;2.10;;
55617;SDS011;41492;49.804;9.952;2024-02-28T12:21:56;2.25;;;2.05;;
55617;SDS011;41492;49.804;9.952;2024-02-28T12:24:25;2.88;;;2.40;;
55617;SDS011;41492;49.804;9.952;2024-02-28T12:26:51;5.15;;;2.30;;
55617;SDS011;41492;49.804;9.952;2024-02-28T12:29:18;2.13;;;2.00;;
55617;SDS011;41492;49.804;9.952;2024-02-28T12:31:45;2.97;;;2.45;;
55617;SDS011;41492;49.804;9.952;2024-02-28T12:34:11;2.40;;;2.20;;
55617;SDS011;41492;49.804;9.952;2024-02-28T12:36:40;2.20;;;2.00;;
55617;SDS011;41492;49.804;9.952;2024-02-28T12:39:06;2.60;;;2.20;;
55617;SDS011;41492;49.804;9.952;2024-02-28T12:41:37;2.58;;;2.38;;
55617;SDS011;41492;49.804;9.952;2024-02-28T12:44:04;2.25;;;2.05;;
55617;SDS011;41492;49.804;9.952;2024-02-28T12:46:31;2.65;;;2.13;;
55617;SDS011;41492;49.804;9.952;2024-02-28T12:48:57;2.92;;;2.20;;
55617;SDS011;41492;49.804;9.952;2024-02-28T12:51:35;2.13;;;1.95;;
55617;SDS011;41492;49.804;9.952;2024-02-28T12:54:02;2.33;;;2.13;;
55617;SDS011;41492;49.804;9.952;2024-02-28T12:56:29;2.33;;;1.95;;
55617;SDS011;41492;49.804;9.952;2024-02-28T12:58:57;2.10;;;1.80;;
55617;SDS011;41492;49.804;9.952;2024-02-28T13:01:25;2.53;;;2.33;;
55617;SDS011;41492;49.804;9.952;2024-02-28T13:03:52;2.42;;;2.15;;
55617;SDS011;41492;49.804;9.952;2024-02-28T13:06:19;2.22;;;1.85;;
55617;SDS011;41492;49.804;9.952;2024-02-28T13:08:45;2.05;;;1.85;;
55617;SDS011;41492;49.804;9.952;2024-02-28T13:11:16;2.63;;;2.17;;
55617;SDS011;41492;49.804;9.952;2024-02-28T13:13:44;2.28;;;2.08;;
55617;SDS011;41492;49.804;9.952;2024-02-28T13:16:11;2.33;;;2.13;;
55617;SDS011;41492;49.804;9.952;2024-02-28T13:18:38;2.08;;;1.88;;
55617;SDS011;41492;49.804;9.952;2024-02-28T13:21:05;2.42;;;2.22;;
55617;SDS011;41492;49.804;9.952;2024-02-28T13:23:31;2.28;;;2.05;;
55617;SDS011;41492;49.804;9.952;2024-02-28T13:25:58;2.20;;;2.00;;
55617;SDS011;41492;49.804;9.952;2024-02-28T13:28:25;2.25;;;1.85;;
55617;SDS011;41492;49.804;9.952;2024-02-28T13:30:54;1.88;;;1.77;;
55617;SDS011;41492;49.804;9.952;2024-02-28T13:33:22;1.77;;;1.67;;
55617;SDS011;41492;49.804;9.952;2024-02-28T13:35:49;2.55;;;2.28;;
55617;SDS011;41492;49.804;9.952;2024-02-28T13:38:16;2.47;;;2.05;;
55617;SDS011;41492;49.804;9.952;2024-02-28T13:40:43;1.98;;;1.63;;
55617;SDS011;41492;49.804;9.952;2024-02-28T13:43:11;1.70;;;1.60;;
55617;SDS011;41492;49.804;9.952;2024-02-28T13:45:37;2.50;;;2.30;;
55617;SDS011;41492;49.804;9.952;2024-02-28T13:48:14;2.15;;;1.95;;
55617;SDS011;41492;49.804;9.952;2024-02-28T13:50:43;3.03;;;2.10;;
55617;SDS011;41492;49.804;9.952;2024-02-28T13:53:09;2.00;;;1.90;;
55617;SDS011;41492;49.804;9.952;2024-02-28T13:55:36;2.30;;;2.10;;
55617;SDS011;41492;49.804;9.952;2024-02-28T13:58:03;2.00;;;1.83;;
55617;SDS011;41492;49.804;9.952;2024-02-28T14:00:30;2.72;;;2.42;;
55617;SDS011;41492;49.804;9.952;2024-02-28T14:02:56;1.98;;;1.88;;
55617;SDS011;41492;49.804;9.952;2024-02-28T14:05:23;2.08;;;1.90;;
55617;SDS011;41492;49.804;9.952;2024-02-28T14:07:51;2.08;;;1.83;;
55617;SDS011;41492;49.804;9.952;2024-02-28T14:10:17;2.10;;;1.90;;
55617;SDS011;41492;49.804;9.952;2024-02-28T14:12:44;2.05;;;1.90;;
55617;SDS011;41492;49.804;9.952;2024-02-28T14:15:10;1.80;;;1.70;;
55617;SDS011;41492;49.804;9.952;2024-02-28T14:17:37;2.80;;;2.08;;
55617;SDS011;41492;49.804;9.952;2024-02-28T14:20:04;1.98;;;1.83;;
55617;SDS011;41492;49.804;9.952;2024-02-28T14:22:34;2.75;;;1.95;;
55617;SDS011;41492;49.804;9.952;2024-02-28T14:25:02;1.75;;;1.65;;
55617;SDS011;41492;49.804;9.952;2024-02-28T14:27:29;2.42;;;2.22;;
55617;SDS011;41492;49.804;9.952;2024-02-28T14:29:58;1.98;;;1.88;;
55617;SDS011;41492;49.804;9.952;2024-02-28T14:32:24;1.98;;;1.88;;
55617;SDS011;41492;49.804;9.952;2024-02-28T14:34:51;1.90;;;1.67;;
55617;SDS011;41492;49.804;9.952;2024-02-28T14:37:19;1.80;;;1.70;;
55617;SDS011;41492;49.804;9.952;2024-02-28T14:39:45;2.42;;;1.85;;
55617;SDS011;41492;49.804;9.952;2024-02-28T14:42:13;2.60;;;2.10;;
55617;SDS011;41492;49.804;9.952;2024-02-28T14:44:40;1.85;;;1.70;;
55617;SDS011;41492;49.804;9.952;2024-02-28T14:47:07;2.40;;;1.95;;